sensor_id;sensor_type;location;lat;lon;timestamp;temperature;humidity
22747;DHT22;11540;52.130;5.648;2022-07-05T00:00:59;13.20;99.90
22747;DHT22;11540;52.130;5.648;2022-07-05T00:03:26;13.20;99.90
22747;DHT22;11540;52.130;5.648;2022-07-05T00:05:52;13.10;99.90
22747;DHT22;11540;52.130;5.648;2022-07-05T00:08:17;13.10;99.90
22747;DHT22;11540;52.130;5.648;2022-07-05T00:10:43;13.20;99.90
22747;DHT22;11540;52.130;5.648;2022-07-05T00:13:09;13.20;99.90
22747;DHT22;11540;52.130;5.648;2022-07-05T00:15:35;13.20;99.90
22747;DHT22;11540;52.130;5.648;2022-07-05T00:18:00;13.20;99.90
22747;DHT22;11540;52.130;5.648;2022-07-05T00:20:26;13.30;99.90
22747;DHT22;11540;52.130;5.648;2022-07-05T00:22:52;13.30;99.90
22747;DHT22;11540;52.130;5.648;2022-07-05T00:25:17;13.40;99.90
22747;DHT22;11540;52.130;5.648;2022-07-05T00:27:43;13.30;99.90
22747;DHT22;11540;52.130;5.648;2022-07-05T00:30:10;13.30;99.90
22747;DHT22;11540;52.130;5.648;2022-07-05T00:32:36;13.20;99.90
22747;DHT22;11540;52.130;5.648;2022-07-05T00:35:05;13.20;99.90
22747;DHT22;11540;52.130;5.648;2022-07-05T00:37:32;13.10;99.90
22747;DHT22;11540;52.130;5.648;2022-07-05T00:39:57;13.10;99.90
22747;DHT22;11540;52.130;5.648;2022-07-05T00:42:23;13.00;99.90
22747;DHT22;11540;52.130;5.648;2022-07-05T00:44:48;12.90;99.90
22747;DHT22;11540;52.130;5.648;2022-07-05T00:47:14;12.80;99.90
22747;DHT22;11540;52.130;5.648;2022-07-05T00:49:40;12.80;99.90
22747;DHT22;11540;52.130;5.648;2022-07-05T00:52:06;12.80;99.90
22747;DHT22;11540;52.130;5.648;2022-07-05T00:54:35;12.80;99.90
22747;DHT22;11540;52.130;5.648;2022-07-05T00:57:01;12.80;99.90
22747;DHT22;11540;52.130;5.648;2022-07-05T00:59:28;12.80;99.90
22747;DHT22;11540;52.130;5.648;2022-07-05T01:01:54;12.70;99.90
22747;DHT22;11540;52.130;5.648;2022-07-05T01:04:19;12.70;99.90
22747;DHT22;11540;52.130;5.648;2022-07-05T01:06:47;12.60;99.90
22747;DHT22;11540;52.130;5.648;2022-07-05T01:09:15;12.60;99.90
22747;DHT22;11540;52.130;5.648;2022-07-05T01:11:43;12.60;99.90
22747;DHT22;11540;52.130;5.648;2022-07-05T01:14:13;12.50;99.90
22747;DHT22;11540;52.130;5.648;2022-07-05T01:16:41;12.50;99.90
22747;DHT22;11540;52.130;5.648;2022-07-05T01:19:07;12.50;99.90
22747;DHT22;11540;52.130;5.648;2022-07-05T01:21:40;12.50;99.90
22747;DHT22;11540;52.130;5.648;2022-07-05T01:24:07;12.40;99.90
22747;DHT22;11540;52.130;5.648;2022-07-05T01:26:33;12.30;99.90
22747;DHT22;11540;52.130;5.648;2022-07-05T01:28:58;12.20;99.90
22747;DHT22;11540;52.130;5.648;2022-07-05T01:31:24;12.20;99.90
22747;DHT22;11540;52.130;5.648;2022-07-05T01:33:50;12.20;99.90
22747;DHT22;11540;52.130;5.648;2022-07-05T01:36:15;12.20;99.90
22747;DHT22;11540;52.130;5.648;2022-07-05T01:38:41;12.20;99.90
22747;DHT22;11540;52.130;5.648;2022-07-05T01:41:08;12.30;99.90
22747;DHT22;11540;52.130;5.648;2022-07-05T01:43:34;12.40;99.90
22747;DHT22;11540;52.130;5.648;2022-07-05T01:46:02;12.40;99.90
22747;DHT22;11540;52.130;5.648;2022-07-05T01:48:29;12.40;99.90
22747;DHT22;11540;52.130;5.648;2022-07-05T01:51:04;12.50;99.90
22747;DHT22;11540;52.130;5.648;2022-07-05T01:53:31;12.60;99.90
22747;DHT22;11540;52.130;5.648;2022-07-05T01:55:58;12.60;99.90
22747;DHT22;11540;52.130;5.648;2022-07-05T01:58:25;12.60;99.90
22747;DHT22;11540;52.130;5.648;2022-07-05T02:00:54;12.70;99.90
22747;DHT22;11540;52.130;5.648;2022-07-05T02:03:21;12.80;99.90
22747;DHT22;11540;52.130;5.648;2022-07-05T02:05:48;12.90;99.90
22747;DHT22;11540;52.130;5.648;2022-07-05T02:08:15;12.90;99.90
22747;DHT22;11540;52.130;5.648;2022-07-05T02:10:41;12.90;99.90
22747;DHT22;11540;52.130;5.648;2022-07-05T02:13:07;12.90;99.90
22747;DHT22;11540;52.130;5.648;2022-07-05T02:15:35;12.90;99.90
22747;DHT22;11540;52.130;5.648;2022-07-05T02:18:01;13.00;99.90
22747;DHT22;11540;52.130;5.648;2022-07-05T02:20:28;13.00;99.90
22747;DHT22;11540;52.130;5.648;2022-07-05T02:22:54;13.00;99.90
22747;DHT22;11540;52.130;5.648;2022-07-05T02:25:20;13.00;99.90
22747;DHT22;11540;52.130;5.648;2022-07-05T02:27:45;13.00;99.90
22747;DHT22;11540;52.130;5.648;2022-07-05T02:30:11;12.90;99.90
22747;DHT22;11540;52.130;5.648;2022-07-05T02:32:37;12.80;99.90
22747;DHT22;11540;52.130;5.648;2022-07-05T02:35:04;12.70;99.90
22747;DHT22;11540;52.130;5.648;2022-07-05T02:37:30;12.60;99.90
22747;DHT22;11540;52.130;5.648;2022-07-05T02:39:56;12.70;99.90
22747;DHT22;11540;52.130;5.648;2022-07-05T02:42:21;12.60;99.90
22747;DHT22;11540;52.130;5.648;2022-07-05T02:44:47;12.70;99.90
22747;DHT22;11540;52.130;5.648;2022-07-05T02:47:13;12.70;99.90
22747;DHT22;11540;52.130;5.648;2022-07-05T02:49:38;12.80;99.90
22747;DHT22;11540;52.130;5.648;2022-07-05T02:52:04;12.90;99.90
22747;DHT22;11540;52.130;5.648;2022-07-05T02:54:29;13.00;99.90
22747;DHT22;11540;52.130;5.648;2022-07-05T02:56:55;13.00;99.90
22747;DHT22;11540;52.130;5.648;2022-07-05T02:59:20;13.10;99.90
22747;DHT22;11540;52.130;5.648;2022-07-05T03:01:46;13.10;99.90
22747;DHT22;11540;52.130;5.648;2022-07-05T03:04:11;13.00;99.90
22747;DHT22;11540;52.130;5.648;2022-07-05T03:06:37;12.90;99.90
22747;DHT22;11540;52.130;5.648;2022-07-05T03:09:03;12.80;99.90
22747;DHT22;11540;52.130;5.648;2022-07-05T03:11:28;12.80;99.90
22747;DHT22;11540;52.130;5.648;2022-07-05T03:13:54;12.80;99.90
22747;DHT22;11540;52.130;5.648;2022-07-05T03:16:19;12.80;99.90
22747;DHT22;11540;52.130;5.648;2022-07-05T03:18:47;12.90;99.90
22747;DHT22;11540;52.130;5.648;2022-07-05T03:21:12;13.00;99.90
22747;DHT22;11540;52.130;5.648;2022-07-05T03:23:38;13.00;99.90
22747;DHT22;11540;52.130;5.648;2022-07-05T03:26:03;13.00;99.90
22747;DHT22;11540;52.130;5.648;2022-07-05T03:28:29;13.10;99.90
22747;DHT22;11540;52.130;5.648;2022-07-05T03:30:54;13.10;99.90
22747;DHT22;11540;52.130;5.648;2022-07-05T03:33:20;13.10;99.90
22747;DHT22;11540;52.130;5.648;2022-07-05T03:35:45;13.00;99.90
22747;DHT22;11540;52.130;5.648;2022-07-05T03:38:11;13.00;99.90
22747;DHT22;11540;52.130;5.648;2022-07-05T03:40:36;13.00;99.90
22747;DHT22;11540;52.130;5.648;2022-07-05T03:43:02;13.00;99.90
22747;DHT22;11540;52.130;5.648;2022-07-05T03:45:27;12.90;99.90
22747;DHT22;11540;52.130;5.648;2022-07-05T03:47:57;12.90;99.90
22747;DHT22;11540;52.130;5.648;2022-07-05T03:50:23;12.90;99.90
22747;DHT22;11540;52.130;5.648;2022-07-05T03:52:49;13.00;99.90
22747;DHT22;11540;52.130;5.648;2022-07-05T03:55:14;13.10;99.90
22747;DHT22;11540;52.130;5.648;2022-07-05T03:57:40;13.10;99.90
22747;DHT22;11540;52.130;5.648;2022-07-05T04:00:06;13.10;99.90
22747;DHT22;11540;52.130;5.648;2022-07-05T04:02:31;13.10;99.90
22747;DHT22;11540;52.130;5.648;2022-07-05T04:04:57;13.20;99.90
22747;DHT22;11540;52.130;5.648;2022-07-05T04:07:22;13.30;99.90
22747;DHT22;11540;52.130;5.648;2022-07-05T04:09:48;13.30;99.90
22747;DHT22;11540;52.130;5.648;2022-07-05T04:12:14;13.30;99.90
22747;DHT22;11540;52.130;5.648;2022-07-05T04:14:39;13.30;99.90
22747;DHT22;11540;52.130;5.648;2022-07-05T04:17:05;13.30;99.90
22747;DHT22;11540;52.130;5.648;2022-07-05T04:19:30;13.30;99.90
22747;DHT22;11540;52.130;5.648;2022-07-05T04:21:56;13.40;99.90
22747;DHT22;11540;52.130;5.648;2022-07-05T04:24:21;13.50;99.90
22747;DHT22;11540;52.130;5.648;2022-07-05T04:26:47;13.60;99.90
22747;DHT22;11540;52.130;5.648;2022-07-05T04:29:12;13.60;99.90
22747;DHT22;11540;52.130;5.648;2022-07-05T04:31:38;13.70;99.90
22747;DHT22;11540;52.130;5.648;2022-07-05T04:34:03;13.80;99.90
22747;DHT22;11540;52.130;5.648;2022-07-05T04:36:29;13.90;99.90
22747;DHT22;11540;52.130;5.648;2022-07-05T04:38:54;13.90;99.90
22747;DHT22;11540;52.130;5.648;2022-07-05T04:41:20;14.00;99.90
22747;DHT22;11540;52.130;5.648;2022-07-05T04:43:46;14.10;99.90
22747;DHT22;11540;52.130;5.648;2022-07-05T04:46:11;14.10;99.90
22747;DHT22;11540;52.130;5.648;2022-07-05T04:48:37;14.20;99.90
22747;DHT22;11540;52.130;5.648;2022-07-05T04:51:02;14.20;99.90
22747;DHT22;11540;52.130;5.648;2022-07-05T04:53:28;14.20;99.90
22747;DHT22;11540;52.130;5.648;2022-07-05T04:55:54;14.30;99.90
22747;DHT22;11540;52.130;5.648;2022-07-05T04:58:19;14.20;99.90
22747;DHT22;11540;52.130;5.648;2022-07-05T05:00:45;14.10;99.90
22747;DHT22;11540;52.130;5.648;2022-07-05T05:03:10;14.10;99.90
22747;DHT22;11540;52.130;5.648;2022-07-05T05:05:36;14.10;99.90
22747;DHT22;11540;52.130;5.648;2022-07-05T05:08:01;14.10;99.90
22747;DHT22;11540;52.130;5.648;2022-07-05T05:10:27;14.20;99.90
22747;DHT22;11540;52.130;5.648;2022-07-05T05:12:52;14.10;99.90
22747;DHT22;11540;52.130;5.648;2022-07-05T05:15:18;14.00;99.90
22747;DHT22;11540;52.130;5.648;2022-07-05T05:17:44;14.00;99.90
22747;DHT22;11540;52.130;5.648;2022-07-05T05:20:11;13.90;99.90
22747;DHT22;11540;52.130;5.648;2022-07-05T05:22:37;13.90;99.90
22747;DHT22;11540;52.130;5.648;2022-07-05T05:25:03;13.90;99.90
22747;DHT22;11540;52.130;5.648;2022-07-05T05:27:29;14.00;99.90
22747;DHT22;11540;52.130;5.648;2022-07-05T05:29:55;14.10;99.90
22747;DHT22;11540;52.130;5.648;2022-07-05T05:32:20;14.30;99.90
22747;DHT22;11540;52.130;5.648;2022-07-05T05:34:46;14.70;99.90
22747;DHT22;11540;52.130;5.648;2022-07-05T05:37:11;15.00;99.90
22747;DHT22;11540;52.130;5.648;2022-07-05T05:39:37;15.20;99.90
22747;DHT22;11540;52.130;5.648;2022-07-05T05:42:03;15.30;99.90
22747;DHT22;11540;52.130;5.648;2022-07-05T05:44:28;15.20;99.90
22747;DHT22;11540;52.130;5.648;2022-07-05T05:46:54;15.20;99.90
22747;DHT22;11540;52.130;5.648;2022-07-05T05:49:19;15.10;99.90
22747;DHT22;11540;52.130;5.648;2022-07-05T05:51:45;15.00;99.90
22747;DHT22;11540;52.130;5.648;2022-07-05T05:54:10;15.00;99.90
22747;DHT22;11540;52.130;5.648;2022-07-05T05:56:36;15.30;99.90
22747;DHT22;11540;52.130;5.648;2022-07-05T05:59:03;15.60;99.90
22747;DHT22;11540;52.130;5.648;2022-07-05T06:01:29;15.90;99.90
22747;DHT22;11540;52.130;5.648;2022-07-05T06:03:54;16.10;99.90
22747;DHT22;11540;52.130;5.648;2022-07-05T06:06:20;16.30;99.90
22747;DHT22;11540;52.130;5.648;2022-07-05T06:08:45;16.50;99.90
22747;DHT22;11540;52.130;5.648;2022-07-05T06:11:11;16.70;99.90
22747;DHT22;11540;52.130;5.648;2022-07-05T06:13:36;16.90;99.90
22747;DHT22;11540;52.130;5.648;2022-07-05T06:16:02;17.00;99.90
22747;DHT22;11540;52.130;5.648;2022-07-05T06:18:28;17.20;99.90
22747;DHT22;11540;52.130;5.648;2022-07-05T06:20:53;17.30;99.90
22747;DHT22;11540;52.130;5.648;2022-07-05T06:23:19;17.40;99.90
22747;DHT22;11540;52.130;5.648;2022-07-05T06:25:44;17.50;99.90
22747;DHT22;11540;52.130;5.648;2022-07-05T06:28:10;17.60;99.90
22747;DHT22;11540;52.130;5.648;2022-07-05T06:30:37;17.80;99.90
22747;DHT22;11540;52.130;5.648;2022-07-05T06:33:03;18.00;99.90
22747;DHT22;11540;52.130;5.648;2022-07-05T06:35:30;18.20;99.90
22747;DHT22;11540;52.130;5.648;2022-07-05T06:38:07;18.20;99.90
22747;DHT22;11540;52.130;5.648;2022-07-05T06:40:34;18.20;99.90
22747;DHT22;11540;52.130;5.648;2022-07-05T06:43:02;18.20;99.90
22747;DHT22;11540;52.130;5.648;2022-07-05T06:45:28;18.50;99.90
22747;DHT22;11540;52.130;5.648;2022-07-05T06:48:02;18.60;99.90
22747;DHT22;11540;52.130;5.648;2022-07-05T06:50:30;18.80;99.90
22747;DHT22;11540;52.130;5.648;2022-07-05T06:52:56;18.90;99.90
22747;DHT22;11540;52.130;5.648;2022-07-05T06:55:22;19.10;99.90
22747;DHT22;11540;52.130;5.648;2022-07-05T06:57:49;19.20;99.90
22747;DHT22;11540;52.130;5.648;2022-07-05T07:00:16;19.20;99.90
22747;DHT22;11540;52.130;5.648;2022-07-05T07:02:42;19.50;99.90
22747;DHT22;11540;52.130;5.648;2022-07-05T07:05:08;19.60;99.90
22747;DHT22;11540;52.130;5.648;2022-07-05T07:07:34;19.70;99.90
22747;DHT22;11540;52.130;5.648;2022-07-05T07:10:18;20.00;99.90
22747;DHT22;11540;52.130;5.648;2022-07-05T07:12:44;20.30;99.90
22747;DHT22;11540;52.130;5.648;2022-07-05T07:15:10;20.60;99.90
22747;DHT22;11540;52.130;5.648;2022-07-05T07:17:36;20.70;99.90
22747;DHT22;11540;52.130;5.648;2022-07-05T07:20:01;20.70;99.90
22747;DHT22;11540;52.130;5.648;2022-07-05T07:22:27;20.80;99.90
22747;DHT22;11540;52.130;5.648;2022-07-05T07:24:53;20.80;99.90
22747;DHT22;11540;52.130;5.648;2022-07-05T07:27:19;20.80;99.90
22747;DHT22;11540;52.130;5.648;2022-07-05T07:29:44;20.80;99.90
22747;DHT22;11540;52.130;5.648;2022-07-05T07:32:10;20.70;99.90
22747;DHT22;11540;52.130;5.648;2022-07-05T07:34:36;20.50;99.90
22747;DHT22;11540;52.130;5.648;2022-07-05T07:37:02;20.40;99.90
22747;DHT22;11540;52.130;5.648;2022-07-05T07:39:28;20.40;99.90
22747;DHT22;11540;52.130;5.648;2022-07-05T07:41:54;20.30;99.90
22747;DHT22;11540;52.130;5.648;2022-07-05T07:44:20;20.40;99.90
22747;DHT22;11540;52.130;5.648;2022-07-05T07:46:45;20.30;99.90
22747;DHT22;11540;52.130;5.648;2022-07-05T07:49:12;20.50;99.90
22747;DHT22;11540;52.130;5.648;2022-07-05T07:51:38;20.70;99.90
22747;DHT22;11540;52.130;5.648;2022-07-05T07:54:03;20.70;99.90
22747;DHT22;11540;52.130;5.648;2022-07-05T07:56:29;20.80;99.90
22747;DHT22;11540;52.130;5.648;2022-07-05T07:58:55;20.80;99.90
22747;DHT22;11540;52.130;5.648;2022-07-05T08:01:20;20.80;99.90
22747;DHT22;11540;52.130;5.648;2022-07-05T08:03:46;20.80;99.90
22747;DHT22;11540;52.130;5.648;2022-07-05T08:06:12;20.80;99.90
22747;DHT22;11540;52.130;5.648;2022-07-05T08:08:39;20.70;99.90
22747;DHT22;11540;52.130;5.648;2022-07-05T08:11:07;20.70;99.90
22747;DHT22;11540;52.130;5.648;2022-07-05T08:13:33;20.80;99.90
22747;DHT22;11540;52.130;5.648;2022-07-05T08:15:59;20.90;99.90
22747;DHT22;11540;52.130;5.648;2022-07-05T08:18:25;21.10;99.90
22747;DHT22;11540;52.130;5.648;2022-07-05T08:21:10;21.50;99.90
22747;DHT22;11540;52.130;5.648;2022-07-05T08:23:54;21.60;99.90
22747;DHT22;11540;52.130;5.648;2022-07-05T08:26:20;21.60;99.90
22747;DHT22;11540;52.130;5.648;2022-07-05T08:28:46;21.50;99.90
22747;DHT22;11540;52.130;5.648;2022-07-05T08:31:12;21.70;99.90
22747;DHT22;11540;52.130;5.648;2022-07-05T08:33:37;21.80;99.90
22747;DHT22;11540;52.130;5.648;2022-07-05T08:36:03;21.90;99.90
22747;DHT22;11540;52.130;5.648;2022-07-05T08:38:29;21.50;99.90
22747;DHT22;11540;52.130;5.648;2022-07-05T08:40:55;21.50;99.90
22747;DHT22;11540;52.130;5.648;2022-07-05T08:43:23;21.20;99.90
22747;DHT22;11540;52.130;5.648;2022-07-05T08:45:52;21.10;99.90
22747;DHT22;11540;52.130;5.648;2022-07-05T08:48:19;21.40;99.90
22747;DHT22;11540;52.130;5.648;2022-07-05T08:50:46;21.50;99.90
22747;DHT22;11540;52.130;5.648;2022-07-05T08:53:15;21.80;99.90
22747;DHT22;11540;52.130;5.648;2022-07-05T08:55:41;22.30;99.90
22747;DHT22;11540;52.130;5.648;2022-07-05T08:58:06;22.60;99.90
22747;DHT22;11540;52.130;5.648;2022-07-05T09:00:32;22.60;99.90
22747;DHT22;11540;52.130;5.648;2022-07-05T09:02:58;22.60;99.90
22747;DHT22;11540;52.130;5.648;2022-07-05T09:05:25;23.20;99.90
22747;DHT22;11540;52.130;5.648;2022-07-05T09:08:00;23.60;99.90
22747;DHT22;11540;52.130;5.648;2022-07-05T09:10:29;23.20;99.90
22747;DHT22;11540;52.130;5.648;2022-07-05T09:12:55;22.80;99.90
22747;DHT22;11540;52.130;5.648;2022-07-05T09:15:21;22.50;99.90
22747;DHT22;11540;52.130;5.648;2022-07-05T09:17:47;22.10;99.90
22747;DHT22;11540;52.130;5.648;2022-07-05T09:20:15;22.10;99.90
22747;DHT22;11540;52.130;5.648;2022-07-05T09:25:18;22.60;99.90
22747;DHT22;11540;52.130;5.648;2022-07-05T09:27:49;23.10;99.90
22747;DHT22;11540;52.130;5.648;2022-07-05T09:30:28;23.70;99.90
22747;DHT22;11540;52.130;5.648;2022-07-05T09:35:31;24.20;99.90
22747;DHT22;11540;52.130;5.648;2022-07-05T09:37:57;24.80;99.90
22747;DHT22;11540;52.130;5.648;2022-07-05T09:40:23;24.90;99.90
22747;DHT22;11540;52.130;5.648;2022-07-05T09:42:48;24.60;99.90
22747;DHT22;11540;52.130;5.648;2022-07-05T09:45:21;24.10;99.90
22747;DHT22;11540;52.130;5.648;2022-07-05T09:47:48;24.10;99.90
22747;DHT22;11540;52.130;5.648;2022-07-05T09:50:13;23.50;99.90
22747;DHT22;11540;52.130;5.648;2022-07-05T09:52:40;23.00;99.90
22747;DHT22;11540;52.130;5.648;2022-07-05T09:55:11;22.80;99.90
22747;DHT22;11540;52.130;5.648;2022-07-05T09:57:42;23.10;99.90
22747;DHT22;11540;52.130;5.648;2022-07-05T10:02:47;22.90;99.90
22747;DHT22;11540;52.130;5.648;2022-07-05T10:05:24;22.80;99.90
22747;DHT22;11540;52.130;5.648;2022-07-05T10:07:53;22.60;99.90
22747;DHT22;11540;52.130;5.648;2022-07-05T10:10:23;22.30;99.90
22747;DHT22;11540;52.130;5.648;2022-07-05T10:12:51;21.90;99.90
22747;DHT22;11540;52.130;5.648;2022-07-05T10:15:19;21.70;99.90
22747;DHT22;11540;52.130;5.648;2022-07-05T10:17:50;21.60;99.90
22747;DHT22;11540;52.130;5.648;2022-07-05T10:23:07;21.90;99.90
22747;DHT22;11540;52.130;5.648;2022-07-05T10:25:35;22.80;99.90
22747;DHT22;11540;52.130;5.648;2022-07-05T10:28:01;23.60;99.90
22747;DHT22;11540;52.130;5.648;2022-07-05T10:30:26;24.30;99.90
22747;DHT22;11540;52.130;5.648;2022-07-05T10:32:53;24.10;99.90
22747;DHT22;11540;52.130;5.648;2022-07-05T10:35:19;24.10;99.90
22747;DHT22;11540;52.130;5.648;2022-07-05T10:37:47;23.60;99.90
22747;DHT22;11540;52.130;5.648;2022-07-05T10:40:14;23.70;99.90
22747;DHT22;11540;52.130;5.648;2022-07-05T10:42:46;23.50;99.90
22747;DHT22;11540;52.130;5.648;2022-07-05T10:45:29;23.40;99.90
22747;DHT22;11540;52.130;5.648;2022-07-05T10:48:17;23.20;99.90
22747;DHT22;11540;52.130;5.648;2022-07-05T10:51:00;23.00;99.90
22747;DHT22;11540;52.130;5.648;2022-07-05T10:58:39;22.40;99.90
22747;DHT22;11540;52.130;5.648;2022-07-05T11:06:32;24.80;99.90
22747;DHT22;11540;52.130;5.648;2022-07-05T11:14:00;25.90;99.90
22747;DHT22;11540;52.130;5.648;2022-07-05T11:19:09;24.10;99.90
22747;DHT22;11540;52.130;5.648;2022-07-05T11:21:36;24.20;99.90
22747;DHT22;11540;52.130;5.648;2022-07-05T11:24:22;24.10;99.90
22747;DHT22;11540;52.130;5.648;2022-07-05T11:26:50;24.40;99.90
22747;DHT22;11540;52.130;5.648;2022-07-05T11:29:47;23.90;99.90
22747;DHT22;11540;52.130;5.648;2022-07-05T11:32:19;23.30;99.90
22747;DHT22;11540;52.130;5.648;2022-07-05T11:34:52;23.10;99.90
22747;DHT22;11540;52.130;5.648;2022-07-05T11:37:22;23.90;99.90
22747;DHT22;11540;52.130;5.648;2022-07-05T11:42:47;25.60;99.90
22747;DHT22;11540;52.130;5.648;2022-07-05T11:45:14;26.40;99.90
22747;DHT22;11540;52.130;5.648;2022-07-05T11:47:40;27.00;99.90
22747;DHT22;11540;52.130;5.648;2022-07-05T11:50:07;26.80;99.90
22747;DHT22;11540;52.130;5.648;2022-07-05T11:52:34;25.90;99.90
22747;DHT22;11540;52.130;5.648;2022-07-05T11:55:01;25.00;99.90
22747;DHT22;11540;52.130;5.648;2022-07-05T11:57:27;24.20;99.90
22747;DHT22;11540;52.130;5.648;2022-07-05T11:59:52;23.50;99.90
22747;DHT22;11540;52.130;5.648;2022-07-05T12:02:18;23.10;99.90
22747;DHT22;11540;52.130;5.648;2022-07-05T12:04:47;23.00;99.90
22747;DHT22;11540;52.130;5.648;2022-07-05T12:07:23;24.10;99.90
22747;DHT22;11540;52.130;5.648;2022-07-05T12:09:49;24.40;99.90
22747;DHT22;11540;52.130;5.648;2022-07-05T12:12:35;25.00;99.90
22747;DHT22;11540;52.130;5.648;2022-07-05T12:15:19;25.00;99.90
22747;DHT22;11540;52.130;5.648;2022-07-05T12:17:47;23.60;99.90
22747;DHT22;11540;52.130;5.648;2022-07-05T12:20:13;23.20;99.90
22747;DHT22;11540;52.130;5.648;2022-07-05T12:22:41;23.50;99.90
22747;DHT22;11540;52.130;5.648;2022-07-05T12:25:07;23.40;99.90
22747;DHT22;11540;52.130;5.648;2022-07-05T12:27:34;23.40;99.90
22747;DHT22;11540;52.130;5.648;2022-07-05T12:30:00;24.30;99.90
22747;DHT22;11540;52.130;5.648;2022-07-05T12:32:27;24.30;99.90
22747;DHT22;11540;52.130;5.648;2022-07-05T12:34:55;23.80;99.90
22747;DHT22;11540;52.130;5.648;2022-07-05T12:37:25;23.60;99.90
22747;DHT22;11540;52.130;5.648;2022-07-05T12:40:01;22.60;99.90
22747;DHT22;11540;52.130;5.648;2022-07-05T12:42:30;22.10;99.90
22747;DHT22;11540;52.130;5.648;2022-07-05T12:47:52;22.10;99.90
22747;DHT22;11540;52.130;5.648;2022-07-05T12:50:22;21.90;99.90
22747;DHT22;11540;52.130;5.648;2022-07-05T12:53:02;21.90;99.90
22747;DHT22;11540;52.130;5.648;2022-07-05T12:55:48;21.90;99.90
22747;DHT22;11540;52.130;5.648;2022-07-05T12:58:32;21.70;99.90
22747;DHT22;11540;52.130;5.648;2022-07-05T13:00:58;21.90;99.90
22747;DHT22;11540;52.130;5.648;2022-07-05T13:03:24;21.90;99.90
22747;DHT22;11540;52.130;5.648;2022-07-05T13:06:02;22.10;99.90
22747;DHT22;11540;52.130;5.648;2022-07-05T13:08:28;22.00;99.90
22747;DHT22;11540;52.130;5.648;2022-07-05T13:10:54;22.30;99.90
22747;DHT22;11540;52.130;5.648;2022-07-05T13:13:19;22.60;99.90
22747;DHT22;11540;52.130;5.648;2022-07-05T13:15:45;23.40;99.90
22747;DHT22;11540;52.130;5.648;2022-07-05T13:18:11;24.10;99.90
22747;DHT22;11540;52.130;5.648;2022-07-05T13:20:36;24.60;99.90
22747;DHT22;11540;52.130;5.648;2022-07-05T13:23:02;25.30;99.90
22747;DHT22;11540;52.130;5.648;2022-07-05T13:25:27;26.10;99.90
22747;DHT22;11540;52.130;5.648;2022-07-05T13:27:53;26.50;99.90
22747;DHT22;11540;52.130;5.648;2022-07-05T13:30:18;25.70;99.90
22747;DHT22;11540;52.130;5.648;2022-07-05T13:32:44;25.00;99.90
22747;DHT22;11540;52.130;5.648;2022-07-05T13:35:09;25.30;99.90
22747;DHT22;11540;52.130;5.648;2022-07-05T13:37:35;25.00;99.90
22747;DHT22;11540;52.130;5.648;2022-07-05T13:40:01;24.40;99.90
22747;DHT22;11540;52.130;5.648;2022-07-05T13:42:26;23.70;99.90
22747;DHT22;11540;52.130;5.648;2022-07-05T13:44:52;23.40;99.90
22747;DHT22;11540;52.130;5.648;2022-07-05T13:47:17;23.10;99.90
22747;DHT22;11540;52.130;5.648;2022-07-05T13:49:43;23.10;99.90
22747;DHT22;11540;52.130;5.648;2022-07-05T13:52:08;23.70;99.90
22747;DHT22;11540;52.130;5.648;2022-07-05T13:54:34;25.00;99.90
22747;DHT22;11540;52.130;5.648;2022-07-05T13:56:59;26.00;99.90
22747;DHT22;11540;52.130;5.648;2022-07-05T13:59:25;25.60;99.90
22747;DHT22;11540;52.130;5.648;2022-07-05T14:01:50;25.30;99.90
22747;DHT22;11540;52.130;5.648;2022-07-05T14:04:16;24.80;99.90
22747;DHT22;11540;52.130;5.648;2022-07-05T14:06:41;24.00;99.90
22747;DHT22;11540;52.130;5.648;2022-07-05T14:09:07;23.50;99.90
22747;DHT22;11540;52.130;5.648;2022-07-05T14:11:33;23.10;99.90
22747;DHT22;11540;52.130;5.648;2022-07-05T14:13:59;24.10;99.90
22747;DHT22;11540;52.130;5.648;2022-07-05T14:16:24;24.70;99.90
22747;DHT22;11540;52.130;5.648;2022-07-05T14:18:50;24.40;99.90
22747;DHT22;11540;52.130;5.648;2022-07-05T14:21:16;24.40;99.90
22747;DHT22;11540;52.130;5.648;2022-07-05T14:23:42;25.40;99.90
22747;DHT22;11540;52.130;5.648;2022-07-05T14:26:08;25.60;99.90
22747;DHT22;11540;52.130;5.648;2022-07-05T14:28:36;25.60;99.90
22747;DHT22;11540;52.130;5.648;2022-07-05T14:31:02;24.70;99.90
22747;DHT22;11540;52.130;5.648;2022-07-05T14:33:27;24.00;99.90
22747;DHT22;11540;52.130;5.648;2022-07-05T14:35:53;23.50;99.90
22747;DHT22;11540;52.130;5.648;2022-07-05T14:38:18;23.50;99.90
22747;DHT22;11540;52.130;5.648;2022-07-05T14:40:44;24.80;99.90
22747;DHT22;11540;52.130;5.648;2022-07-05T14:43:09;25.70;99.90
22747;DHT22;11540;52.130;5.648;2022-07-05T14:45:35;26.50;99.90
22747;DHT22;11540;52.130;5.648;2022-07-05T14:48:00;26.80;99.40
22747;DHT22;11540;52.130;5.648;2022-07-05T14:50:26;25.80;99.80
22747;DHT22;11540;52.130;5.648;2022-07-05T14:52:51;24.80;99.90
22747;DHT22;11540;52.130;5.648;2022-07-05T14:55:17;25.80;99.90
22747;DHT22;11540;52.130;5.648;2022-07-05T14:57:42;27.70;99.90
22747;DHT22;11540;52.130;5.648;2022-07-05T15:00:08;28.50;97.90
22747;DHT22;11540;52.130;5.648;2022-07-05T15:02:35;29.60;98.00
22747;DHT22;11540;52.130;5.648;2022-07-05T15:05:00;29.50;96.30
22747;DHT22;11540;52.130;5.648;2022-07-05T15:07:26;29.40;95.40
22747;DHT22;11540;52.130;5.648;2022-07-05T15:09:52;28.10;96.80
22747;DHT22;11540;52.130;5.648;2022-07-05T15:12:17;26.20;98.90
22747;DHT22;11540;52.130;5.648;2022-07-05T15:14:43;25.00;99.90
22747;DHT22;11540;52.130;5.648;2022-07-05T15:17:10;25.70;99.90
22747;DHT22;11540;52.130;5.648;2022-07-05T15:19:35;26.20;99.90
22747;DHT22;11540;52.130;5.648;2022-07-05T15:22:01;26.40;99.10
22747;DHT22;11540;52.130;5.648;2022-07-05T15:24:27;25.20;99.80
22747;DHT22;11540;52.130;5.648;2022-07-05T15:26:52;24.00;99.90
22747;DHT22;11540;52.130;5.648;2022-07-05T15:29:18;23.20;99.90
22747;DHT22;11540;52.130;5.648;2022-07-05T15:31:44;23.50;99.90
22747;DHT22;11540;52.130;5.648;2022-07-05T15:34:09;23.60;99.90
22747;DHT22;11540;52.130;5.648;2022-07-05T15:36:35;24.10;99.90
22747;DHT22;11540;52.130;5.648;2022-07-05T15:39:03;25.00;99.90
22747;DHT22;11540;52.130;5.648;2022-07-05T15:41:30;24.90;99.90
22747;DHT22;11540;52.130;5.648;2022-07-05T15:43:57;24.20;99.90
22747;DHT22;11540;52.130;5.648;2022-07-05T15:46:23;24.60;99.30
22747;DHT22;11540;52.130;5.648;2022-07-05T15:48:49;23.80;99.90
22747;DHT22;11540;52.130;5.648;2022-07-05T15:51:15;23.50;99.90
22747;DHT22;11540;52.130;5.648;2022-07-05T15:53:45;23.00;99.90
22747;DHT22;11540;52.130;5.648;2022-07-05T15:56:12;22.60;99.90
22747;DHT22;11540;52.130;5.648;2022-07-05T15:58:37;22.30;99.90
22747;DHT22;11540;52.130;5.648;2022-07-05T16:01:04;21.90;99.90
22747;DHT22;11540;52.130;5.648;2022-07-05T16:03:30;21.60;99.90